Terminal Aerodrome Forecast
Issued by NWS Fort Wayne, IN

Home | Current Version | Previous Version | Graphics & Text | Print | Product List | Glossary On
Versions: 1 2 3 4 5 6 7 8 9 10 11 12 13 14 15
000
FTUS43 KIWX 310100 AAA
TAFFWA
TAF AMD
KFWA 310141Z 3102/3124 25010KT P6SM BKN060
      TEMPO 3102/3103 -RA
     FM310300 VRB04KT P6SM BKN060
     FM310500 24013KT P6SM BKN060 WS020/26050KT
     FM311200 30012KT P6SM SCT025=

USA.gov is the U.S. government's official web portal to all federal, state and local government web resources and services.